createdAt,value
2023-09-13T00:02:25.351Z,101072.53
2023-09-13T00:04:55.934Z,101071.38
2023-09-13T00:07:24.408Z,101074.66
2023-09-13T00:09:52.531Z,101074.41
2023-09-13T00:12:20.691Z,101074.54
2023-09-13T00:14:50.008Z,101074.52
2023-09-13T00:17:19.084Z,101070.83
2023-09-13T00:19:47.467Z,101070.84
2023-09-13T00:22:15.693Z,101066.77
2023-09-13T00:24:44.054Z,101067.46
2023-09-13T00:27:12.300Z,101068.39
2023-09-13T00:29:40.515Z,101066.13
2023-09-13T00:32:08.956Z,101065.09
2023-09-13T00:34:37.348Z,101064.16
2023-09-13T00:37:05.739Z,101064.16
2023-09-13T00:39:34.916Z,101063.90
2023-09-13T00:42:03.712Z,101061.82
2023-09-13T00:44:32.841Z,101058.72
2023-09-13T00:47:01.117Z,101059.92
2023-09-13T00:49:29.435Z,101065.07
2023-09-13T00:51:59.114Z,101065.89
2023-09-13T00:54:28.170Z,101071.86
2023-09-13T00:56:56.648Z,101074.31
2023-09-13T00:59:25.746Z,101074.93
2023-09-13T01:01:54.097Z,101077.70
2023-09-13T01:04:22.516Z,101075.51
2023-09-13T01:06:50.918Z,101076.60
2023-09-13T01:09:19.574Z,101077.08
2023-09-13T01:11:48.058Z,101076.34
2023-09-13T01:14:16.442Z,101073.64
2023-09-13T01:16:52.919Z,101072.69
2023-09-13T01:19:27.326Z,101073.30
2023-09-13T01:22:13.920Z,101073.56
2023-09-13T01:25:08.541Z,101068.77
2023-09-13T01:27:54.619Z,101072.54
2023-09-13T01:30:24.436Z,101072.81
2023-09-13T01:32:53.227Z,101070.44
2023-09-13T01:35:21.650Z,101068.02
2023-09-13T01:37:50.052Z,101064.52
2023-09-13T01:40:18.685Z,101060.77
2023-09-13T01:42:48.004Z,101060.21
2023-09-13T01:45:16.705Z,101058.75
2023-09-13T01:47:48.884Z,101055.25
2023-09-13T01:50:17.698Z,101054.36
2023-09-13T01:52:46.183Z,101054.27
2023-09-13T01:55:14.585Z,101048.71
2023-09-13T01:57:42.996Z,101049.13
2023-09-13T02:00:12.356Z,101047.89
2023-09-13T02:02:40.710Z,101050.10
2023-09-13T02:05:09.225Z,101051.34
2023-09-13T02:07:37.482Z,101051.45
2023-09-13T02:10:06.046Z,101052.95
2023-09-13T02:12:34.276Z,101051.52
2023-09-13T02:15:02.787Z,101048.85
2023-09-13T02:17:32.377Z,101044.06
2023-09-13T02:20:00.656Z,101043.71
2023-09-13T02:22:29.146Z,101045.11
2023-09-13T02:24:57.695Z,101045.96
2023-09-13T02:27:26.097Z,101044.52
2023-09-13T02:29:54.475Z,101042.13
2023-09-13T02:32:22.790Z,101040.39
2023-09-13T02:34:51.241Z,101042.44
2023-09-13T02:37:19.490Z,101040.79
2023-09-13T02:39:48.074Z,101042.08
2023-09-13T02:42:16.890Z,101037.91
2023-09-13T02:44:46.404Z,101041.60
2023-09-13T02:47:14.815Z,101042.72
2023-09-13T02:49:43.335Z,101044.67
2023-09-13T02:52:11.637Z,101043.23
2023-09-13T02:54:39.923Z,101043.61
2023-09-13T02:57:09.139Z,101046.38
2023-09-13T02:59:37.426Z,101047.48
2023-09-13T03:02:05.770Z,101046.74
2023-09-13T03:04:34.394Z,101052.35
2023-09-13T03:07:02.754Z,101048.60
2023-09-13T03:09:31.346Z,101052.14
2023-09-13T03:12:00.122Z,101051.58
2023-09-13T03:14:31.781Z,101052.92
2023-09-13T03:17:00.359Z,101051.53
2023-09-13T03:19:30.731Z,101055.44
2023-09-13T03:21:59.913Z,101055.66
2023-09-13T03:24:29.015Z,101058.14
2023-09-13T03:26:57.656Z,101062.13
2023-09-13T03:29:26.035Z,101060.92
2023-09-13T03:31:54.604Z,101064.59
2023-09-13T03:34:23.136Z,101065.55
2023-09-13T03:36:51.490Z,101069.00
2023-09-13T03:39:20.007Z,101068.77
2023-09-13T03:41:48.646Z,101070.83
2023-09-13T03:44:16.962Z,101074.00
2023-09-13T03:46:45.449Z,101077.39
2023-09-13T03:49:13.856Z,101081.35
2023-09-13T03:51:42.165Z,101082.38
2023-09-13T03:54:10.665Z,101083.84
2023-09-13T03:56:38.965Z,101085.49
2023-09-13T03:59:07.574Z,101089.56
2023-09-13T04:01:35.994Z,101087.82
2023-09-13T04:04:04.597Z,101090.10
2023-09-13T04:06:33.055Z,101099.96
2023-09-13T04:09:01.442Z,101098.09
2023-09-13T04:11:30.247Z,101095.39
2023-09-13T04:13:58.561Z,101092.84
2023-09-13T04:16:26.908Z,101086.59
2023-09-13T04:18:55.029Z,101085.36
2023-09-13T04:21:23.590Z,101088.67
2023-09-13T04:23:52.029Z,101086.45
2023-09-13T04:26:22.915Z,101085.48
2023-09-13T04:28:51.567Z,101089.67
2023-09-13T04:31:20.010Z,101088.03
2023-09-13T04:33:53.035Z,101090.41
2023-09-13T04:36:25.042Z,101089.69
2023-09-13T04:38:53.983Z,101086.10
2023-09-13T04:41:22.273Z,101085.60
2023-09-13T04:43:50.538Z,101084.59
2023-09-13T04:46:20.668Z,101080.55
2023-09-13T04:48:49.381Z,101083.64
2023-09-13T04:51:17.651Z,101083.34
2023-09-13T04:53:46.691Z,101083.87
2023-09-13T04:56:15.559Z,101076.70
2023-09-13T04:58:46.796Z,101081.54
2023-09-13T05:01:18.249Z,101081.54
2023-09-13T05:03:48.309Z,101085.70
2023-09-13T05:06:19.780Z,101085.36
2023-09-13T05:08:50.422Z,101083.27
2023-09-13T05:11:18.506Z,101083.70
2023-09-13T05:13:48.857Z,101084.02
2023-09-13T05:16:21.003Z,101083.51
2023-09-13T05:18:49.678Z,101079.70
2023-09-13T05:21:18.014Z,101078.34
2023-09-13T05:23:46.625Z,101079.81
2023-09-13T05:26:15.268Z,101082.25
2023-09-13T05:28:43.608Z,101082.85
2023-09-13T05:31:12.212Z,101085.48
2023-09-13T05:33:40.594Z,101087.47
2023-09-13T05:36:09.301Z,101085.43
2023-09-13T05:38:38.154Z,101085.79
2023-09-13T05:41:09.846Z,101083.86
2023-09-13T05:43:42.620Z,101080.58
2023-09-13T05:46:11.353Z,101079.94
2023-09-13T05:48:39.661Z,101086.98
2023-09-13T05:51:08.054Z,101085.46
2023-09-13T05:53:36.428Z,101087.09
2023-09-13T05:56:05.102Z,101088.45
2023-09-13T05:58:33.599Z,101084.18
2023-09-13T06:01:02.089Z,101087.39
2023-09-13T06:03:31.873Z,101090.55
2023-09-13T06:06:00.422Z,101090.61
2023-09-13T06:08:28.538Z,101087.98
2023-09-13T06:10:56.960Z,101089.48
2023-09-13T06:13:25.229Z,101091.41
2023-09-13T06:15:53.891Z,101090.30
2023-09-13T06:18:22.712Z,101087.50
2023-09-13T06:20:51.571Z,101087.06
2023-09-13T06:23:39.303Z,101085.30
2023-09-13T06:26:07.851Z,101083.09
2023-09-13T06:28:36.509Z,101083.69
2023-09-13T06:31:05.631Z,101080.36
2023-09-13T06:36:06.216Z,101079.23
2023-09-13T06:38:34.874Z,101079.62
2023-09-13T06:41:04.081Z,101082.70
2023-09-13T06:43:34.104Z,101084.66
2023-09-13T06:46:06.911Z,101088.77
2023-09-13T06:48:37.746Z,101089.38
2023-09-13T06:53:37.913Z,101094.31
2023-09-13T06:56:09.624Z,101093.75
2023-09-13T06:58:40.776Z,101094.01
2023-09-13T07:03:49.663Z,101104.40
2023-09-13T07:06:19.450Z,101101.23
2023-09-13T07:08:47.965Z,101102.41
2023-09-13T07:11:17.113Z,101099.25
2023-09-13T07:13:45.663Z,101103.58
2023-09-13T07:16:14.140Z,101099.41
2023-09-13T07:18:43.040Z,101095.95
2023-09-13T07:21:11.797Z,101096.00
2023-09-13T07:23:40.382Z,101096.55
2023-09-13T07:26:09.698Z,101098.64
2023-09-13T07:28:38.620Z,101095.41
2023-09-13T07:31:10.596Z,101094.84
2023-09-13T07:33:39.153Z,101097.30
2023-09-13T07:36:07.551Z,101099.77
2023-09-13T07:38:36.607Z,101100.58
2023-09-13T07:41:05.125Z,101095.48
2023-09-13T07:43:33.777Z,101096.34
2023-09-13T07:46:02.728Z,101094.94
2023-09-13T07:48:31.039Z,101098.81
2023-09-13T07:50:59.365Z,101098.23
2023-09-13T07:53:27.647Z,101096.48
2023-09-13T07:55:57.333Z,101096.95
2023-09-13T07:58:25.586Z,101098.09
2023-09-13T08:00:53.760Z,101100.78
2023-09-13T08:03:22.344Z,101097.17
2023-09-13T08:05:51.240Z,101094.44
2023-09-13T08:08:25.485Z,101096.81
2023-09-13T08:10:54.150Z,101093.85
2023-09-13T08:13:22.837Z,101093.33
2023-09-13T08:15:51.675Z,101094.25
2023-09-13T08:18:20.185Z,101092.90
2023-09-13T08:20:48.599Z,101091.79
2023-09-13T08:23:17.599Z,101089.05
2023-09-13T08:25:46.801Z,101085.91
2023-09-13T08:28:15.084Z,101090.10
2023-09-13T08:30:43.671Z,101090.05
2023-09-13T08:33:13.485Z,101088.13
2023-09-13T08:35:41.914Z,101086.23
2023-09-13T08:38:10.390Z,101080.91
2023-09-13T08:40:43.413Z,101079.27
2023-09-13T08:43:12.516Z,101071.30
2023-09-13T08:45:41.357Z,101068.23
2023-09-13T08:48:10.857Z,101071.86
2023-09-13T08:50:41.252Z,101068.61
2023-09-13T08:53:12.346Z,101065.24
2023-09-13T08:55:41.783Z,101061.98
2023-09-13T08:58:10.486Z,101064.39
2023-09-13T09:00:40.911Z,101061.45
2023-09-13T09:03:11.059Z,101057.77
2023-09-13T09:05:40.335Z,101054.75
2023-09-13T09:08:09.444Z,101053.54
2023-09-13T09:10:38.350Z,101047.76
2023-09-13T09:13:07.730Z,101048.14
2023-09-13T09:15:37.256Z,101044.89
2023-09-13T09:18:07.422Z,101047.92
2023-09-13T09:20:37.581Z,101045.69
2023-09-13T09:23:06.641Z,101044.82
2023-09-13T09:25:35.072Z,101040.20
2023-09-13T09:28:05.676Z,101042.29
2023-09-13T09:30:34.849Z,101036.94
2023-09-13T09:33:06.881Z,101043.31
2023-09-13T09:35:36.834Z,101040.89
2023-09-13T09:38:20.922Z,101039.14
2023-09-13T09:40:50.771Z,101034.67
2023-09-13T09:43:19.334Z,101032.92
2023-09-13T09:45:47.951Z,101028.00
2023-09-13T09:48:16.915Z,101025.10
2023-09-13T09:50:47.236Z,101021.20
2023-09-13T09:53:16.196Z,101020.11
2023-09-13T09:55:45.281Z,101021.68
2023-09-13T09:58:14.141Z,101016.31
2023-09-13T10:00:48.699Z,101014.94
2023-09-13T10:03:20.670Z,101009.31
2023-09-13T10:05:53.284Z,101010.71
2023-09-13T10:08:36.304Z,101007.15
2023-09-13T10:11:04.724Z,101009.45
2023-09-13T10:13:33.662Z,101011.46
2023-09-13T10:16:03.062Z,101010.23
2023-09-13T10:18:33.616Z,101011.30
2023-09-13T10:21:03.643Z,101007.63
2023-09-13T10:23:53.708Z,101007.12
2023-09-13T10:26:23.036Z,101005.20
2023-09-13T10:28:53.049Z,101002.41
2023-09-13T10:31:26.285Z,101006.59
2023-09-13T10:33:56.566Z,101002.64
2023-09-13T10:36:29.148Z,101002.05
2023-09-13T10:39:17.292Z,100998.98
2023-09-13T10:41:53.624Z,100993.59
2023-09-13T10:44:22.328Z,100993.20
2023-09-13T10:46:51.379Z,100994.40
2023-09-13T10:49:19.680Z,100992.98
2023-09-13T10:51:49.283Z,100990.09
2023-09-13T10:54:19.513Z,100986.63
2023-09-13T10:56:49.140Z,100981.94
2023-09-13T10:59:19.475Z,100983.02
2023-09-13T11:01:48.124Z,100982.89
2023-09-13T11:04:18.506Z,100979.27
2023-09-13T11:06:47.349Z,100975.57
2023-09-13T11:09:20.081Z,100974.77
2023-09-13T11:11:49.803Z,100972.68
2023-09-13T11:14:23.802Z,100969.86
2023-09-13T11:16:52.229Z,100971.15
2023-09-13T11:19:26.917Z,100968.35
2023-09-13T11:22:01.648Z,100963.19
2023-09-13T11:24:50.046Z,100960.95
2023-09-13T11:27:25.026Z,100959.83
2023-09-13T11:29:58.537Z,100957.48
2023-09-13T11:32:30.554Z,100953.71
2023-09-13T11:35:00.517Z,100950.89
2023-09-13T11:37:29.914Z,100944.98
2023-09-13T11:40:11.674Z,100943.50
2023-09-13T11:42:59.433Z,100946.70
2023-09-13T11:45:35.713Z,100945.54
2023-09-13T11:48:06.692Z,100943.70
2023-09-13T11:50:48.771Z,100941.00
2023-09-13T11:53:22.252Z,100939.53
2023-09-13T11:58:51.075Z,100940.86
2023-09-13T12:01:25.903Z,100935.65
2023-09-13T12:04:45.839Z,100933.75
2023-09-13T12:06:49.453Z,100929.15
2023-09-13T12:09:22.446Z,100926.36
2023-09-13T12:11:57.471Z,100925.19
2023-09-13T12:14:56.245Z,100926.16
2023-09-13T12:17:20.675Z,100925.63
2023-09-13T12:19:49.592Z,100924.25
2023-09-13T12:22:19.928Z,100918.27
2023-09-13T12:24:53.410Z,100916.90
2023-09-13T12:27:24.374Z,100916.30
2023-09-13T12:29:53.563Z,100913.73
2023-09-13T12:32:22.041Z,100914.10
2023-09-13T12:34:50.201Z,100913.27
2023-09-13T12:37:18.802Z,100909.39
2023-09-13T12:39:47.379Z,100902.35
2023-09-13T12:42:16.501Z,100899.89
2023-09-13T12:44:47.642Z,100898.59
2023-09-13T12:47:19.517Z,100895.30
2023-09-13T12:49:48.077Z,100893.76
2023-09-13T12:52:16.979Z,100893.41
2023-09-13T12:54:47.407Z,100890.67
2023-09-13T12:57:15.798Z,100885.95
2023-09-13T12:59:45.462Z,100880.95
2023-09-13T13:02:17.899Z,100879.40
2023-09-13T13:04:47.323Z,100876.04
2023-09-13T13:07:22.710Z,100870.02
2023-09-13T13:09:54.471Z,100863.30
2023-09-13T13:12:23.297Z,100861.90
2023-09-13T13:14:52.690Z,100863.98
2023-09-13T13:17:22.660Z,100869.45
2023-09-13T13:19:56.886Z,100866.91
2023-09-13T13:22:26.543Z,100863.77
2023-09-13T13:24:54.925Z,100863.27
2023-09-13T13:27:23.402Z,100861.64
2023-09-13T13:29:51.626Z,100859.38
2023-09-13T13:32:20.097Z,100855.52
2023-09-13T13:34:49.273Z,100855.83
2023-09-13T13:37:17.855Z,100857.42
2023-09-13T13:39:46.120Z,100853.15
2023-09-13T13:42:14.364Z,100851.92
2023-09-13T13:44:42.670Z,100849.55
2023-09-13T13:47:10.937Z,100846.19
2023-09-13T13:49:39.242Z,100844.77
2023-09-13T13:52:07.403Z,100842.62
2023-09-13T13:54:35.808Z,100841.23
2023-09-13T13:57:04.617Z,100844.56
2023-09-13T13:59:32.900Z,100845.30
2023-09-13T14:02:01.197Z,100836.29
2023-09-13T14:04:29.452Z,100831.65
2023-09-13T14:06:57.738Z,100829.80
2023-09-13T14:09:26.969Z,100827.98
2023-09-13T14:11:55.360Z,100822.20
2023-09-13T14:14:23.638Z,100818.67
2023-09-13T14:16:51.811Z,100818.41
2023-09-13T14:19:20.321Z,100817.65
2023-09-13T14:21:49.026Z,100818.08
2023-09-13T14:24:17.533Z,100817.61
2023-09-13T14:26:47.177Z,100816.76
2023-09-13T14:29:16.388Z,100815.92
2023-09-13T14:31:47.249Z,100812.11
2023-09-13T14:34:15.856Z,100807.86
2023-09-13T14:36:44.146Z,100803.95
2023-09-13T14:39:12.510Z,100807.02
2023-09-13T14:41:42.489Z,100803.86
2023-09-13T14:44:10.861Z,100805.59
2023-09-13T14:46:39.610Z,100808.85
2023-09-13T14:49:08.348Z,100806.33
2023-09-13T14:51:38.954Z,100810.20
2023-09-13T14:54:07.460Z,100807.55
2023-09-13T14:56:35.734Z,100806.64
2023-09-13T14:59:04.423Z,100810.85
2023-09-13T15:01:32.622Z,100806.17
2023-09-13T15:04:01.074Z,100803.33
2023-09-13T15:06:30.465Z,100804.56
2023-09-13T15:08:59.393Z,100804.91
2023-09-13T15:11:27.861Z,100806.19
2023-09-13T15:13:56.138Z,100803.90
2023-09-13T15:16:24.824Z,100802.52
2023-09-13T15:18:53.594Z,100803.05
2023-09-13T15:21:22.071Z,100802.89
2023-09-13T15:23:50.682Z,100803.55
2023-09-13T15:26:18.815Z,100798.92
2023-09-13T15:28:47.348Z,100800.75
2023-09-13T15:31:16.054Z,100798.66
2023-09-13T15:33:44.449Z,100795.64
2023-09-13T15:36:12.946Z,100794.65
2023-09-13T15:38:56.836Z,100795.08
2023-09-13T15:41:27.411Z,100795.73
2023-09-13T15:43:55.790Z,100792.81
2023-09-13T15:46:24.289Z,100795.39
2023-09-13T15:48:52.788Z,100795.38
2023-09-13T15:51:21.384Z,100796.63
2023-09-13T15:53:49.724Z,100797.86
2023-09-13T15:56:17.871Z,100798.83
2023-09-13T15:58:46.479Z,100796.19
2023-09-13T16:01:15.145Z,100795.09
2023-09-13T16:03:43.765Z,100791.98
2023-09-13T16:06:12.253Z,100788.95
2023-09-13T16:08:40.685Z,100793.14
2023-09-13T16:11:09.164Z,100794.13
2023-09-13T16:13:37.280Z,100794.75
2023-09-13T16:16:05.770Z,100790.46
2023-09-13T16:18:35.024Z,100790.90
2023-09-13T16:21:03.500Z,100787.52
2023-09-13T16:23:31.984Z,100788.81
2023-09-13T16:26:00.471Z,100783.21
2023-09-13T16:28:28.850Z,100785.58
2023-09-13T16:30:57.260Z,100781.47
2023-09-13T16:33:25.799Z,100784.38
2023-09-13T16:35:54.299Z,100783.59
2023-09-13T16:38:22.687Z,100786.60
2023-09-13T16:40:51.061Z,100791.09
2023-09-13T16:43:19.447Z,100791.14
2023-09-13T16:45:47.961Z,100793.78
2023-09-13T16:48:27.684Z,100796.64
2023-09-13T16:51:00.762Z,100798.52
2023-09-13T16:53:29.243Z,100801.48
2023-09-13T16:55:57.732Z,100800.88
2023-09-13T16:58:26.110Z,100801.39
2023-09-13T17:00:58.436Z,100808.51
2023-09-13T17:03:27.600Z,100810.52
2023-09-13T17:05:56.998Z,100813.11
2023-09-13T17:08:25.194Z,100815.20
2023-09-13T17:10:53.544Z,100817.33
2023-09-13T17:13:22.743Z,100816.55
2023-09-13T17:15:51.138Z,100821.33
2023-09-13T17:18:23.474Z,100821.60
2023-09-13T17:20:54.655Z,100818.95
2023-09-13T17:23:23.155Z,100822.87
2023-09-13T17:25:52.418Z,100822.92
2023-09-13T17:28:22.375Z,100826.27
2023-09-13T17:30:52.010Z,100824.38
2023-09-13T17:33:20.288Z,100828.63
2023-09-13T17:35:49.222Z,100834.98
2023-09-13T17:38:18.601Z,100836.59
2023-09-13T17:40:47.742Z,100841.77
2023-09-13T17:43:16.097Z,100843.02
2023-09-13T17:45:44.439Z,100846.80
2023-09-13T17:48:13.012Z,100852.77
2023-09-13T17:50:41.273Z,100851.45
2023-09-13T17:53:10.102Z,100852.82
2023-09-13T17:55:38.315Z,100849.08
2023-09-13T17:58:06.703Z,100846.40
2023-09-13T18:00:35.240Z,100848.15
2023-09-13T18:03:04.634Z,100850.43
2023-09-13T18:05:33.169Z,100853.15
2023-09-13T18:08:01.684Z,100852.81
2023-09-13T18:10:30.209Z,100852.93
2023-09-13T18:12:58.582Z,100856.73
2023-09-13T18:15:28.669Z,100859.34
2023-09-13T18:17:58.051Z,100860.26
2023-09-13T18:20:27.504Z,100862.96
2023-09-13T18:22:55.950Z,100861.50
2023-09-13T18:25:24.226Z,100859.98
2023-09-13T18:27:52.622Z,100862.16
2023-09-13T18:30:23.479Z,100863.52
2023-09-13T18:32:52.044Z,100861.76
2023-09-13T18:35:21.162Z,100862.77
2023-09-13T18:37:51.176Z,100863.95
2023-09-13T18:40:19.658Z,100864.42
2023-09-13T18:42:48.006Z,100871.07
2023-09-13T18:45:16.441Z,100869.60
2023-09-13T18:47:45.909Z,100868.64
2023-09-13T18:50:14.385Z,100870.69
2023-09-13T18:52:42.744Z,100866.35
2023-09-13T18:55:11.342Z,100868.66
2023-09-13T18:57:42.568Z,100864.25
2023-09-13T19:00:12.695Z,100868.17
2023-09-13T19:02:41.868Z,100867.16
2023-09-13T19:05:12.048Z,100865.96
2023-09-13T19:07:43.194Z,100865.86
2023-09-13T19:10:11.616Z,100863.12
2023-09-13T19:12:41.028Z,100858.33
2023-09-13T19:15:09.600Z,100866.80
2023-09-13T19:17:40.924Z,100868.16
2023-09-13T19:20:09.643Z,100872.17
2023-09-13T19:22:38.289Z,100871.02
2023-09-13T19:25:07.094Z,100870.79
2023-09-13T19:27:36.496Z,100869.86
2023-09-13T19:30:05.273Z,100870.83
2023-09-13T19:32:33.716Z,100872.08
2023-09-13T19:35:02.201Z,100869.63
2023-09-13T19:37:30.583Z,100871.02
2023-09-13T19:40:01.362Z,100867.94
2023-09-13T19:42:31.444Z,100869.85
2023-09-13T19:44:59.836Z,100867.42
2023-09-13T19:47:27.965Z,100871.23
2023-09-13T19:49:57.137Z,100867.06
2023-09-13T19:52:25.883Z,100867.09
2023-09-13T19:54:54.339Z,100869.94
2023-09-13T19:57:22.978Z,100875.21
2023-09-13T19:59:51.545Z,100872.17
2023-09-13T20:02:20.791Z,100873.02
2023-09-13T20:04:49.154Z,100872.41
2023-09-13T20:07:17.290Z,100873.30
2023-09-13T20:09:46.291Z,100877.26
2023-09-13T20:12:14.618Z,100881.10
2023-09-13T20:14:43.457Z,100880.26
2023-09-13T20:17:11.655Z,100880.61
2023-09-13T20:19:39.854Z,100878.89
2023-09-13T20:22:08.216Z,100879.30
2023-09-13T20:24:36.629Z,100876.27
2023-09-13T20:27:05.002Z,100875.69
2023-09-13T20:29:33.477Z,100872.22
2023-09-13T20:32:01.710Z,100872.59
2023-09-13T20:34:34.103Z,100878.73
2023-09-13T20:37:02.570Z,100880.76
2023-09-13T20:39:30.913Z,100885.50
2023-09-13T20:41:59.071Z,100888.11
2023-09-13T20:44:27.401Z,100884.19
2023-09-13T20:46:56.159Z,100884.03
2023-09-13T20:49:24.532Z,100880.38
2023-09-13T20:51:57.498Z,100883.50
2023-09-13T20:54:27.941Z,100878.20
2023-09-13T20:56:56.817Z,100875.09
2023-09-13T20:59:25.615Z,100871.11
2023-09-13T21:01:54.211Z,100875.27
2023-09-13T21:04:22.784Z,100875.75
2023-09-13T21:06:50.899Z,100878.56
2023-09-13T21:09:20.025Z,100882.59
2023-09-13T21:11:48.329Z,100879.80
2023-09-13T21:14:17.189Z,100877.13
2023-09-13T21:16:45.493Z,100879.61
2023-09-13T21:19:14.048Z,100879.05
2023-09-13T21:21:42.658Z,100882.48
2023-09-13T21:24:11.008Z,100882.42
2023-09-13T21:26:39.701Z,100879.25
2023-09-13T21:29:08.382Z,100877.41
2023-09-13T21:31:37.062Z,100871.61
2023-09-13T21:34:05.568Z,100877.14
2023-09-13T21:36:33.807Z,100871.72
2023-09-13T21:39:03.334Z,100873.16
2023-09-13T21:41:31.557Z,100873.66
2023-09-13T21:43:59.739Z,100877.77
2023-09-13T21:46:28.024Z,100882.44
2023-09-13T21:48:56.293Z,100882.79
2023-09-13T21:51:24.540Z,100882.49
2023-09-13T21:53:53.078Z,100881.61
2023-09-13T21:56:21.316Z,100884.69
2023-09-13T21:58:49.561Z,100883.04
2023-09-13T22:01:18.176Z,100879.40
2023-09-13T22:03:47.006Z,100885.30
2023-09-13T22:06:15.481Z,100882.66
2023-09-13T22:08:44.153Z,100883.94
2023-09-13T22:11:12.722Z,100884.39
2023-09-13T22:13:41.185Z,100885.17
2023-09-13T22:16:10.328Z,100886.73
2023-09-13T22:18:39.567Z,100891.70
2023-09-13T22:21:08.053Z,100886.94
2023-09-13T22:23:36.196Z,100886.63
2023-09-13T22:26:04.505Z,100885.06
2023-09-13T22:28:32.933Z,100889.05
2023-09-13T22:31:01.648Z,100891.26
2023-09-13T22:33:30.947Z,100889.34
2023-09-13T22:36:03.045Z,100890.97
2023-09-13T22:38:31.472Z,100892.66
2023-09-13T22:41:00.743Z,100893.65
2023-09-13T22:43:29.088Z,100888.65
2023-09-13T22:45:57.359Z,100888.95
2023-09-13T22:48:25.790Z,100888.58
2023-09-13T22:50:54.249Z,100888.34
2023-09-13T22:53:22.627Z,100888.30
2023-09-13T22:55:55.110Z,100881.17
2023-09-13T22:58:23.600Z,100878.42
2023-09-13T23:00:51.904Z,100877.48
2023-09-13T23:03:33.899Z,100875.86
2023-09-13T23:06:08.593Z,100874.66
2023-09-13T23:08:39.287Z,100879.90
2023-09-13T23:11:07.797Z,100876.91
2023-09-13T23:13:36.192Z,100874.25
2023-09-13T23:16:05.980Z,100875.53
2023-09-13T23:18:35.018Z,100872.58
2023-09-13T23:21:03.609Z,100871.94
2023-09-13T23:23:32.261Z,100872.30
2023-09-13T23:26:00.697Z,100872.29
2023-09-13T23:28:29.390Z,100870.29
2023-09-13T23:31:11.029Z,100869.86
2023-09-13T23:33:40.623Z,100870.50
2023-09-13T23:36:10.209Z,100867.74
2023-09-13T23:38:39.454Z,100867.27
2023-09-13T23:41:08.652Z,100868.95
2023-09-13T23:43:37.705Z,100869.39
2023-09-13T23:46:07.811Z,100863.08
2023-09-13T23:48:37.008Z,100862.15
2023-09-13T23:51:06.087Z,100859.95
2023-09-13T23:53:34.826Z,100863.20
2023-09-13T23:56:05.037Z,100859.05
2023-09-13T23:58:33.601Z,100857.08
